CheckWX is a tool to help pilots better visualize weather data.  It is not intended as a substitute for an official pre-flight weather briefing.

03:33:30 UTC

KLAX METAR
Los Angeles International Airport
Los Angeles, California, USA
Current

11 mins ago

KLAX 220323Z 27010KT 10SM SCT008 SCT250 18/16 A2990 RMK AO2 T01830156 $
Observed
Jul-22 @ 03:23 UTC
Wind
  • 270° at 10 KTS
Visibility
10 SM
Flight Rules
VFR
Cloud Levels
  • Scattered at 800' AGL
  • Scattered at 25,000' AGL
Temperature
18°C / 64°F
Dewpoint
16°C / 61°F
Humidity
88%
Altimeter
29.9" Hg
Pressure
1012.52 hPa
Previous

41 mins ago

KLAX 220253Z 26011KT 10SM FEW010 FEW250 19/16 A2989 RMK AO2 SLP120 T01890156 55002 $
Observed
Jul-22 @ 02:53 UTC
Wind
  • 260° at 11 KTS
Visibility
10 SM
Flight Rules
VFR
Cloud Levels
  • Few at 1,000' AGL
  • Few at 25,000' AGL
Temperature
19°C / 66°F
Dewpoint
16°C / 61°F
Humidity
83%
Altimeter
29.89" Hg
Pressure
1012.22 hPa
Previous

2 hours ago

KLAX 220153Z 25012KT 10SM FEW012 FEW250 19/16 A2988 RMK AO2 SLP117 T01940156 $
Observed
Jul-22 @ 01:53 UTC
Wind
  • 250° at 12 KTS
Visibility
10 SM
Flight Rules
VFR
Cloud Levels
  • Few at 1,200' AGL
  • Few at 25,000' AGL
Temperature
19°C / 66°F
Dewpoint
16°C / 61°F
Humidity
83%
Altimeter
29.88" Hg
Pressure
1011.82 hPa